sensor_id;sensor_type;location;lat;lon;timestamp;temperature;humidity
26589;DHT22;14235;48.532;8.722;2023-04-29T00:01:11;12.10;99.90
26589;DHT22;14235;48.532;8.722;2023-04-29T00:03:36;12.20;99.90
26589;DHT22;14235;48.532;8.722;2023-04-29T00:06:02;12.40;99.90
26589;DHT22;14235;48.532;8.722;2023-04-29T00:08:28;12.10;99.90
26589;DHT22;14235;48.532;8.722;2023-04-29T00:10:53;12.30;99.90
26589;DHT22;14235;48.532;8.722;2023-04-29T00:13:19;12.10;99.90
26589;DHT22;14235;48.532;8.722;2023-04-29T00:15:45;12.10;99.90
26589;DHT22;14235;48.532;8.722;2023-04-29T00:18:11;12.70;99.90
26589;DHT22;14235;48.532;8.722;2023-04-29T00:20:38;12.00;99.90
26589;DHT22;14235;48.532;8.722;2023-04-29T00:23:04;12.00;99.90
26589;DHT22;14235;48.532;8.722;2023-04-29T00:25:30;12.10;99.90
26589;DHT22;14235;48.532;8.722;2023-04-29T00:27:56;12.40;99.90
26589;DHT22;14235;48.532;8.722;2023-04-29T00:30:26;11.90;99.90
26589;DHT22;14235;48.532;8.722;2023-04-29T00:32:52;11.80;99.90
26589;DHT22;14235;48.532;8.722;2023-04-29T00:35:17;11.90;99.90
26589;DHT22;14235;48.532;8.722;2023-04-29T00:37:43;11.90;99.90
26589;DHT22;14235;48.532;8.722;2023-04-29T00:40:09;12.00;99.90
26589;DHT22;14235;48.532;8.722;2023-04-29T00:42:34;11.80;99.90
26589;DHT22;14235;48.532;8.722;2023-04-29T00:45:00;11.70;99.90
26589;DHT22;14235;48.532;8.722;2023-04-29T00:47:26;12.00;99.90
26589;DHT22;14235;48.532;8.722;2023-04-29T00:49:52;12.10;99.90
26589;DHT22;14235;48.532;8.722;2023-04-29T00:52:18;11.90;99.90
26589;DHT22;14235;48.532;8.722;2023-04-29T00:54:43;11.60;99.90
26589;DHT22;14235;48.532;8.722;2023-04-29T00:57:09;12.00;99.90
26589;DHT22;14235;48.532;8.722;2023-04-29T00:59:35;11.60;99.90
26589;DHT22;14235;48.532;8.722;2023-04-29T01:02:02;11.70;99.90
26589;DHT22;14235;48.532;8.722;2023-04-29T01:04:31;11.50;99.90
26589;DHT22;14235;48.532;8.722;2023-04-29T01:07:06;11.60;99.90
26589;DHT22;14235;48.532;8.722;2023-04-29T01:12:23;11.60;99.90
26589;DHT22;14235;48.532;8.722;2023-04-29T01:15:04;12.00;99.90
26589;DHT22;14235;48.532;8.722;2023-04-29T01:17:40;11.50;99.90
26589;DHT22;14235;48.532;8.722;2023-04-29T01:20:08;11.70;99.90
26589;DHT22;14235;48.532;8.722;2023-04-29T01:22:35;11.50;99.90
26589;DHT22;14235;48.532;8.722;2023-04-29T01:25:01;11.40;99.90
26589;DHT22;14235;48.532;8.722;2023-04-29T01:27:30;11.30;99.90
26589;DHT22;14235;48.532;8.722;2023-04-29T01:32:54;11.40;99.90
26589;DHT22;14235;48.532;8.722;2023-04-29T01:35:49;11.50;99.90
26589;DHT22;14235;48.532;8.722;2023-04-29T01:38:29;11.20;99.90
26589;DHT22;14235;48.532;8.722;2023-04-29T01:43:29;11.20;99.90
26589;DHT22;14235;48.532;8.722;2023-04-29T01:45:57;11.30;99.90
26589;DHT22;14235;48.532;8.722;2023-04-29T01:48:24;11.10;99.90
26589;DHT22;14235;48.532;8.722;2023-04-29T01:50:49;11.10;99.90
26589;DHT22;14235;48.532;8.722;2023-04-29T01:53:15;11.50;99.90
26589;DHT22;14235;48.532;8.722;2023-04-29T01:55:41;11.10;99.90
26589;DHT22;14235;48.532;8.722;2023-04-29T01:58:09;11.40;99.90
26589;DHT22;14235;48.532;8.722;2023-04-29T02:00:34;10.90;99.90
26589;DHT22;14235;48.532;8.722;2023-04-29T02:03:00;10.90;99.90
26589;DHT22;14235;48.532;8.722;2023-04-29T02:05:26;11.20;99.90
26589;DHT22;14235;48.532;8.722;2023-04-29T02:07:56;10.90;99.90
26589;DHT22;14235;48.532;8.722;2023-04-29T02:10:22;10.90;99.90
26589;DHT22;14235;48.532;8.722;2023-04-29T02:12:47;10.90;99.90
26589;DHT22;14235;48.532;8.722;2023-04-29T02:15:13;11.00;99.90
26589;DHT22;14235;48.532;8.722;2023-04-29T02:17:38;11.00;99.90
26589;DHT22;14235;48.532;8.722;2023-04-29T02:20:04;11.10;99.90
26589;DHT22;14235;48.532;8.722;2023-04-29T02:22:30;10.90;99.90
26589;DHT22;14235;48.532;8.722;2023-04-29T02:24:55;10.80;99.90
26589;DHT22;14235;48.532;8.722;2023-04-29T02:27:22;10.90;99.90
26589;DHT22;14235;48.532;8.722;2023-04-29T02:29:48;10.90;99.90
26589;DHT22;14235;48.532;8.722;2023-04-29T02:32:13;10.90;99.90
26589;DHT22;14235;48.532;8.722;2023-04-29T02:34:40;10.90;99.90
26589;DHT22;14235;48.532;8.722;2023-04-29T02:37:05;10.80;99.90
26589;DHT22;14235;48.532;8.722;2023-04-29T02:39:31;10.70;99.90
26589;DHT22;14235;48.532;8.722;2023-04-29T02:41:56;11.10;99.90
26589;DHT22;14235;48.532;8.722;2023-04-29T02:44:22;10.80;99.90
26589;DHT22;14235;48.532;8.722;2023-04-29T02:46:48;10.80;99.90
26589;DHT22;14235;48.532;8.722;2023-04-29T02:49:14;11.40;99.90
26589;DHT22;14235;48.532;8.722;2023-04-29T02:51:39;11.60;99.90
26589;DHT22;14235;48.532;8.722;2023-04-29T02:54:05;10.80;99.90
26589;DHT22;14235;48.532;8.722;2023-04-29T02:56:31;10.70;99.90
26589;DHT22;14235;48.532;8.722;2023-04-29T02:58:56;10.80;99.90
26589;DHT22;14235;48.532;8.722;2023-04-29T03:01:22;10.70;99.90
26589;DHT22;14235;48.532;8.722;2023-04-29T03:03:48;11.40;99.90
26589;DHT22;14235;48.532;8.722;2023-04-29T03:06:14;10.80;99.90
26589;DHT22;14235;48.532;8.722;2023-04-29T03:08:40;10.60;99.90
26589;DHT22;14235;48.532;8.722;2023-04-29T03:11:05;11.10;99.90
26589;DHT22;14235;48.532;8.722;2023-04-29T03:13:31;10.70;99.90
26589;DHT22;14235;48.532;8.722;2023-04-29T03:15:57;10.80;99.90
26589;DHT22;14235;48.532;8.722;2023-04-29T03:18:25;11.20;99.90
26589;DHT22;14235;48.532;8.722;2023-04-29T03:20:51;10.70;99.90
26589;DHT22;14235;48.532;8.722;2023-04-29T03:23:16;10.70;99.90
26589;DHT22;14235;48.532;8.722;2023-04-29T03:25:42;10.60;99.90
26589;DHT22;14235;48.532;8.722;2023-04-29T03:28:08;10.50;99.90
26589;DHT22;14235;48.532;8.722;2023-04-29T03:30:33;10.60;99.90
26589;DHT22;14235;48.532;8.722;2023-04-29T03:32:59;11.40;99.90
26589;DHT22;14235;48.532;8.722;2023-04-29T03:35:25;10.60;99.90
26589;DHT22;14235;48.532;8.722;2023-04-29T03:37:50;10.60;99.90
26589;DHT22;14235;48.532;8.722;2023-04-29T03:40:16;10.70;99.90
26589;DHT22;14235;48.532;8.722;2023-04-29T03:42:42;11.00;99.90
26589;DHT22;14235;48.532;8.722;2023-04-29T03:45:08;10.50;99.90
26589;DHT22;14235;48.532;8.722;2023-04-29T03:47:33;10.60;99.90
26589;DHT22;14235;48.532;8.722;2023-04-29T03:50:00;10.60;99.90
26589;DHT22;14235;48.532;8.722;2023-04-29T03:57:19;10.70;99.90
26589;DHT22;14235;48.532;8.722;2023-04-29T03:59:44;10.70;99.90
26589;DHT22;14235;48.532;8.722;2023-04-29T04:02:15;10.60;99.90
26589;DHT22;14235;48.532;8.722;2023-04-29T04:04:40;10.60;99.90
26589;DHT22;14235;48.532;8.722;2023-04-29T04:07:06;10.50;99.90
26589;DHT22;14235;48.532;8.722;2023-04-29T04:09:32;10.50;99.90
26589;DHT22;14235;48.532;8.722;2023-04-29T04:11:58;10.50;99.90
26589;DHT22;14235;48.532;8.722;2023-04-29T04:14:24;10.60;99.90
26589;DHT22;14235;48.532;8.722;2023-04-29T04:16:50;10.60;99.90
26589;DHT22;14235;48.532;8.722;2023-04-29T04:19:16;10.70;99.90
26589;DHT22;14235;48.532;8.722;2023-04-29T04:21:41;10.40;99.90
26589;DHT22;14235;48.532;8.722;2023-04-29T04:24:07;11.00;99.90
26589;DHT22;14235;48.532;8.722;2023-04-29T04:26:32;10.30;99.90
26589;DHT22;14235;48.532;8.722;2023-04-29T04:28:58;10.30;99.90
26589;DHT22;14235;48.532;8.722;2023-04-29T04:31:24;10.20;99.90
26589;DHT22;14235;48.532;8.722;2023-04-29T04:33:49;10.20;99.90
26589;DHT22;14235;48.532;8.722;2023-04-29T04:36:15;10.40;99.90
26589;DHT22;14235;48.532;8.722;2023-04-29T04:38:41;10.20;99.90
26589;DHT22;14235;48.532;8.722;2023-04-29T04:41:06;10.60;99.90
26589;DHT22;14235;48.532;8.722;2023-04-29T04:43:32;10.20;99.90
26589;DHT22;14235;48.532;8.722;2023-04-29T04:45:58;10.30;99.90
26589;DHT22;14235;48.532;8.722;2023-04-29T04:48:23;10.20;99.90
26589;DHT22;14235;48.532;8.722;2023-04-29T04:50:49;10.50;99.90
26589;DHT22;14235;48.532;8.722;2023-04-29T04:53:15;10.30;99.90
26589;DHT22;14235;48.532;8.722;2023-04-29T04:55:41;10.20;99.90
26589;DHT22;14235;48.532;8.722;2023-04-29T04:58:07;10.10;99.90
26589;DHT22;14235;48.532;8.722;2023-04-29T05:00:32;10.10;99.90
26589;DHT22;14235;48.532;8.722;2023-04-29T05:02:58;10.50;99.90
26589;DHT22;14235;48.532;8.722;2023-04-29T05:05:23;10.10;99.90
26589;DHT22;14235;48.532;8.722;2023-04-29T05:07:49;10.10;99.90
26589;DHT22;14235;48.532;8.722;2023-04-29T05:10:15;10.00;99.90
26589;DHT22;14235;48.532;8.722;2023-04-29T05:12:41;10.00;99.90
26589;DHT22;14235;48.532;8.722;2023-04-29T05:15:07;10.00;99.90
26589;DHT22;14235;48.532;8.722;2023-04-29T05:17:32;10.10;99.90
26589;DHT22;14235;48.532;8.722;2023-04-29T05:20:00;10.10;99.90
26589;DHT22;14235;48.532;8.722;2023-04-29T05:22:26;10.10;99.90
26589;DHT22;14235;48.532;8.722;2023-04-29T05:24:51;10.40;99.90
26589;DHT22;14235;48.532;8.722;2023-04-29T05:27:18;10.20;99.90
26589;DHT22;14235;48.532;8.722;2023-04-29T05:29:44;10.30;99.90
26589;DHT22;14235;48.532;8.722;2023-04-29T05:32:09;10.30;99.90
26589;DHT22;14235;48.532;8.722;2023-04-29T05:34:35;10.30;99.90
26589;DHT22;14235;48.532;8.722;2023-04-29T05:37:01;10.40;99.90
26589;DHT22;14235;48.532;8.722;2023-04-29T05:39:26;10.40;99.90
26589;DHT22;14235;48.532;8.722;2023-04-29T05:41:52;10.50;99.90
26589;DHT22;14235;48.532;8.722;2023-04-29T05:44:17;10.40;99.90
26589;DHT22;14235;48.532;8.722;2023-04-29T05:46:43;10.60;99.90
26589;DHT22;14235;48.532;8.722;2023-04-29T05:49:09;10.60;99.90
26589;DHT22;14235;48.532;8.722;2023-04-29T05:51:34;10.50;99.90
26589;DHT22;14235;48.532;8.722;2023-04-29T05:54:00;10.70;99.90
26589;DHT22;14235;48.532;8.722;2023-04-29T05:56:25;10.50;99.90
26589;DHT22;14235;48.532;8.722;2023-04-29T05:58:51;10.50;99.90
26589;DHT22;14235;48.532;8.722;2023-04-29T06:01:17;10.50;99.90
26589;DHT22;14235;48.532;8.722;2023-04-29T06:03:42;10.40;99.90
26589;DHT22;14235;48.532;8.722;2023-04-29T06:06:08;10.60;99.90
26589;DHT22;14235;48.532;8.722;2023-04-29T06:08:34;10.50;99.90
26589;DHT22;14235;48.532;8.722;2023-04-29T06:11:00;10.50;99.90
26589;DHT22;14235;48.532;8.722;2023-04-29T06:13:27;10.60;99.90
26589;DHT22;14235;48.532;8.722;2023-04-29T06:15:54;10.60;99.90
26589;DHT22;14235;48.532;8.722;2023-04-29T06:18:20;10.70;99.90
26589;DHT22;14235;48.532;8.722;2023-04-29T06:30:32;11.20;99.90
26589;DHT22;14235;48.532;8.722;2023-04-29T06:32:58;11.30;99.90
26589;DHT22;14235;48.532;8.722;2023-04-29T06:35:24;11.50;99.90
26589;DHT22;14235;48.532;8.722;2023-04-29T06:37:49;11.60;99.90
26589;DHT22;14235;48.532;8.722;2023-04-29T06:40:15;11.70;99.90
26589;DHT22;14235;48.532;8.722;2023-04-29T06:42:41;11.80;99.90
26589;DHT22;14235;48.532;8.722;2023-04-29T06:47:35;12.00;99.90
26589;DHT22;14235;48.532;8.722;2023-04-29T06:50:01;12.20;99.90
26589;DHT22;14235;48.532;8.722;2023-04-29T06:52:28;12.10;99.90
26589;DHT22;14235;48.532;8.722;2023-04-29T06:54:54;12.50;99.90
26589;DHT22;14235;48.532;8.722;2023-04-29T06:57:19;12.90;99.90
26589;DHT22;14235;48.532;8.722;2023-04-29T06:59:45;12.40;99.90
26589;DHT22;14235;48.532;8.722;2023-04-29T07:02:10;12.60;99.90
26589;DHT22;14235;48.532;8.722;2023-04-29T07:04:36;12.70;99.90
26589;DHT22;14235;48.532;8.722;2023-04-29T07:07:02;13.20;99.90
26589;DHT22;14235;48.532;8.722;2023-04-29T07:09:28;12.60;99.90
26589;DHT22;14235;48.532;8.722;2023-04-29T07:11:53;12.70;99.90
26589;DHT22;14235;48.532;8.722;2023-04-29T07:14:19;12.80;99.90
26589;DHT22;14235;48.532;8.722;2023-04-29T07:16:47;12.60;99.90
26589;DHT22;14235;48.532;8.722;2023-04-29T07:19:12;12.60;99.90
26589;DHT22;14235;48.532;8.722;2023-04-29T07:21:38;12.60;99.90
26589;DHT22;14235;48.532;8.722;2023-04-29T07:24:04;12.80;99.90
26589;DHT22;14235;48.532;8.722;2023-04-29T07:26:29;12.70;99.90
26589;DHT22;14235;48.532;8.722;2023-04-29T07:28:55;12.90;99.90
26589;DHT22;14235;48.532;8.722;2023-04-29T07:31:21;13.10;99.90
26589;DHT22;14235;48.532;8.722;2023-04-29T07:33:46;12.90;99.90
26589;DHT22;14235;48.532;8.722;2023-04-29T07:36:13;12.90;99.90
26589;DHT22;14235;48.532;8.722;2023-04-29T07:38:38;13.00;99.90
26589;DHT22;14235;48.532;8.722;2023-04-29T07:41:04;13.10;99.90
26589;DHT22;14235;48.532;8.722;2023-04-29T07:43:30;12.90;99.90
26589;DHT22;14235;48.532;8.722;2023-04-29T07:45:55;13.00;99.90
26589;DHT22;14235;48.532;8.722;2023-04-29T07:48:21;13.00;99.90
26589;DHT22;14235;48.532;8.722;2023-04-29T07:50:47;13.70;99.90
26589;DHT22;14235;48.532;8.722;2023-04-29T07:53:12;13.30;99.90
26589;DHT22;14235;48.532;8.722;2023-04-29T07:55:39;13.20;99.90
26589;DHT22;14235;48.532;8.722;2023-04-29T07:58:05;13.40;99.90
26589;DHT22;14235;48.532;8.722;2023-04-29T08:00:31;13.70;99.90
26589;DHT22;14235;48.532;8.722;2023-04-29T08:02:56;13.90;99.90
26589;DHT22;14235;48.532;8.722;2023-04-29T08:05:22;13.60;99.90
26589;DHT22;14235;48.532;8.722;2023-04-29T08:07:49;13.40;99.90
26589;DHT22;14235;48.532;8.722;2023-04-29T08:10:15;13.50;99.90
26589;DHT22;14235;48.532;8.722;2023-04-29T08:12:44;13.50;99.90
26589;DHT22;14235;48.532;8.722;2023-04-29T08:15:10;13.50;99.90
26589;DHT22;14235;48.532;8.722;2023-04-29T08:17:35;13.50;99.90
26589;DHT22;14235;48.532;8.722;2023-04-29T08:20:01;13.70;99.90
26589;DHT22;14235;48.532;8.722;2023-04-29T08:22:27;13.70;99.90
26589;DHT22;14235;48.532;8.722;2023-04-29T08:24:52;13.70;99.90
26589;DHT22;14235;48.532;8.722;2023-04-29T08:27:18;14.40;99.90
26589;DHT22;14235;48.532;8.722;2023-04-29T08:29:44;13.80;99.90
26589;DHT22;14235;48.532;8.722;2023-04-29T08:32:10;13.90;99.90
26589;DHT22;14235;48.532;8.722;2023-04-29T08:34:35;14.60;99.90
26589;DHT22;14235;48.532;8.722;2023-04-29T08:37:02;14.50;99.90
26589;DHT22;14235;48.532;8.722;2023-04-29T08:39:28;14.20;99.90
26589;DHT22;14235;48.532;8.722;2023-04-29T08:41:56;14.30;99.90
26589;DHT22;14235;48.532;8.722;2023-04-29T08:44:22;14.20;99.90
26589;DHT22;14235;48.532;8.722;2023-04-29T08:46:49;14.20;99.90
26589;DHT22;14235;48.532;8.722;2023-04-29T08:49:15;14.20;99.90
26589;DHT22;14235;48.532;8.722;2023-04-29T08:51:41;14.20;99.90
26589;DHT22;14235;48.532;8.722;2023-04-29T08:54:06;14.30;99.90
26589;DHT22;14235;48.532;8.722;2023-04-29T08:56:32;14.40;99.90
26589;DHT22;14235;48.532;8.722;2023-04-29T08:59:00;14.30;99.90
26589;DHT22;14235;48.532;8.722;2023-04-29T09:01:27;14.30;99.90
26589;DHT22;14235;48.532;8.722;2023-04-29T09:04:08;14.40;99.90
26589;DHT22;14235;48.532;8.722;2023-04-29T09:06:35;14.40;99.90
26589;DHT22;14235;48.532;8.722;2023-04-29T09:09:02;14.50;99.90
26589;DHT22;14235;48.532;8.722;2023-04-29T09:11:28;14.50;99.90
26589;DHT22;14235;48.532;8.722;2023-04-29T09:13:59;14.60;99.90
26589;DHT22;14235;48.532;8.722;2023-04-29T09:16:26;14.80;99.90
26589;DHT22;14235;48.532;8.722;2023-04-29T09:18:51;14.60;99.90
26589;DHT22;14235;48.532;8.722;2023-04-29T09:21:28;14.80;99.90
26589;DHT22;14235;48.532;8.722;2023-04-29T09:23:58;15.10;99.90
26589;DHT22;14235;48.532;8.722;2023-04-29T09:26:25;15.20;99.90
26589;DHT22;14235;48.532;8.722;2023-04-29T09:29:10;15.40;99.90
26589;DHT22;14235;48.532;8.722;2023-04-29T09:31:38;15.40;99.90
26589;DHT22;14235;48.532;8.722;2023-04-29T09:34:04;15.50;99.90
26589;DHT22;14235;48.532;8.722;2023-04-29T09:36:43;15.30;99.90
26589;DHT22;14235;48.532;8.722;2023-04-29T09:39:14;15.20;99.90
26589;DHT22;14235;48.532;8.722;2023-04-29T09:44:21;15.10;99.90
26589;DHT22;14235;48.532;8.722;2023-04-29T09:47:06;15.20;99.90
26589;DHT22;14235;48.532;8.722;2023-04-29T09:49:41;15.10;99.90
26589;DHT22;14235;48.532;8.722;2023-04-29T09:52:09;15.30;99.90
26589;DHT22;14235;48.532;8.722;2023-04-29T09:54:36;15.20;99.90
26589;DHT22;14235;48.532;8.722;2023-04-29T09:57:03;15.50;99.90
26589;DHT22;14235;48.532;8.722;2023-04-29T09:59:34;15.20;99.90
26589;DHT22;14235;48.532;8.722;2023-04-29T10:02:01;15.40;99.90
26589;DHT22;14235;48.532;8.722;2023-04-29T10:04:31;15.90;99.90
26589;DHT22;14235;48.532;8.722;2023-04-29T10:06:59;15.90;99.90
26589;DHT22;14235;48.532;8.722;2023-04-29T10:09:27;15.40;99.90
26589;DHT22;14235;48.532;8.722;2023-04-29T10:11:53;15.50;99.90
26589;DHT22;14235;48.532;8.722;2023-04-29T10:14:20;15.60;99.90
26589;DHT22;14235;48.532;8.722;2023-04-29T10:16:48;15.50;99.90
26589;DHT22;14235;48.532;8.722;2023-04-29T10:19:25;15.60;99.90
26589;DHT22;14235;48.532;8.722;2023-04-29T10:21:53;15.40;99.90
26589;DHT22;14235;48.532;8.722;2023-04-29T10:24:24;15.70;99.90
26589;DHT22;14235;48.532;8.722;2023-04-29T10:26:52;15.60;99.90
26589;DHT22;14235;48.532;8.722;2023-04-29T10:29:20;15.80;99.90
26589;DHT22;14235;48.532;8.722;2023-04-29T10:31:47;16.20;99.90
26589;DHT22;14235;48.532;8.722;2023-04-29T10:34:16;16.00;99.90
26589;DHT22;14235;48.532;8.722;2023-04-29T10:36:42;16.10;99.90
26589;DHT22;14235;48.532;8.722;2023-04-29T10:39:16;16.30;99.90
26589;DHT22;14235;48.532;8.722;2023-04-29T10:41:45;16.30;99.90
26589;DHT22;14235;48.532;8.722;2023-04-29T10:44:12;15.80;99.90
26589;DHT22;14235;48.532;8.722;2023-04-29T10:46:38;15.80;99.90
26589;DHT22;14235;48.532;8.722;2023-04-29T10:49:04;16.10;99.90
26589;DHT22;14235;48.532;8.722;2023-04-29T10:51:38;15.70;99.90
26589;DHT22;14235;48.532;8.722;2023-04-29T10:54:09;15.90;99.90
26589;DHT22;14235;48.532;8.722;2023-04-29T10:56:43;15.80;99.90
26589;DHT22;14235;48.532;8.722;2023-04-29T10:59:10;15.60;99.90
26589;DHT22;14235;48.532;8.722;2023-04-29T11:01:47;16.00;99.90
26589;DHT22;14235;48.532;8.722;2023-04-29T11:04:14;15.80;99.90
26589;DHT22;14235;48.532;8.722;2023-04-29T11:06:43;16.00;99.90
26589;DHT22;14235;48.532;8.722;2023-04-29T11:11:52;16.10;99.90
26589;DHT22;14235;48.532;8.722;2023-04-29T11:14:28;16.20;99.90
26589;DHT22;14235;48.532;8.722;2023-04-29T11:17:02;16.20;99.90
26589;DHT22;14235;48.532;8.722;2023-04-29T11:19:32;16.00;99.90
26589;DHT22;14235;48.532;8.722;2023-04-29T11:22:10;16.40;99.90
26589;DHT22;14235;48.532;8.722;2023-04-29T11:24:47;16.40;99.90
26589;DHT22;14235;48.532;8.722;2023-04-29T11:27:13;16.20;99.90
26589;DHT22;14235;48.532;8.722;2023-04-29T11:29:40;16.50;99.90
26589;DHT22;14235;48.532;8.722;2023-04-29T11:32:06;16.70;99.90
26589;DHT22;14235;48.532;8.722;2023-04-29T11:34:32;16.70;99.90
26589;DHT22;14235;48.532;8.722;2023-04-29T11:36:58;16.70;99.90
26589;DHT22;14235;48.532;8.722;2023-04-29T11:39:23;16.90;99.90
26589;DHT22;14235;48.532;8.722;2023-04-29T11:41:49;16.90;99.90
26589;DHT22;14235;48.532;8.722;2023-04-29T11:44:20;16.90;99.90
26589;DHT22;14235;48.532;8.722;2023-04-29T11:46:47;16.90;99.90
26589;DHT22;14235;48.532;8.722;2023-04-29T11:49:13;16.80;99.90
26589;DHT22;14235;48.532;8.722;2023-04-29T11:51:39;17.30;99.90
26589;DHT22;14235;48.532;8.722;2023-04-29T11:54:06;17.20;99.90
26589;DHT22;14235;48.532;8.722;2023-04-29T11:56:31;16.80;99.90
26589;DHT22;14235;48.532;8.722;2023-04-29T11:58:57;16.90;99.90
26589;DHT22;14235;48.532;8.722;2023-04-29T12:01:24;16.80;99.90
26589;DHT22;14235;48.532;8.722;2023-04-29T12:03:56;16.80;99.90
26589;DHT22;14235;48.532;8.722;2023-04-29T12:06:27;16.60;99.90
26589;DHT22;14235;48.532;8.722;2023-04-29T12:08:53;16.80;99.90
26589;DHT22;14235;48.532;8.722;2023-04-29T12:11:19;17.00;99.90
26589;DHT22;14235;48.532;8.722;2023-04-29T12:13:45;17.10;99.90
26589;DHT22;14235;48.532;8.722;2023-04-29T12:16:11;16.90;99.90
26589;DHT22;14235;48.532;8.722;2023-04-29T12:18:37;16.80;99.90
26589;DHT22;14235;48.532;8.722;2023-04-29T12:21:03;16.90;99.90
26589;DHT22;14235;48.532;8.722;2023-04-29T12:23:29;17.00;99.90
26589;DHT22;14235;48.532;8.722;2023-04-29T12:25:59;17.10;99.90
26589;DHT22;14235;48.532;8.722;2023-04-29T12:28:25;17.40;99.90
26589;DHT22;14235;48.532;8.722;2023-04-29T12:30:52;17.50;99.90
26589;DHT22;14235;48.532;8.722;2023-04-29T12:33:26;17.60;99.90
26589;DHT22;14235;48.532;8.722;2023-04-29T12:35:53;17.40;99.90
26589;DHT22;14235;48.532;8.722;2023-04-29T12:38:26;17.30;99.90
26589;DHT22;14235;48.532;8.722;2023-04-29T12:40:56;17.40;99.90
26589;DHT22;14235;48.532;8.722;2023-04-29T12:45:54;17.70;99.90
26589;DHT22;14235;48.532;8.722;2023-04-29T12:48:29;17.70;99.90
26589;DHT22;14235;48.532;8.722;2023-04-29T12:50:55;17.60;99.90
26589;DHT22;14235;48.532;8.722;2023-04-29T12:53:22;17.80;99.90
26589;DHT22;14235;48.532;8.722;2023-04-29T12:55:48;17.70;99.90
26589;DHT22;14235;48.532;8.722;2023-04-29T12:58:14;17.90;99.90
26589;DHT22;14235;48.532;8.722;2023-04-29T13:00:40;18.00;99.90
26589;DHT22;14235;48.532;8.722;2023-04-29T13:03:05;18.30;99.90
26589;DHT22;14235;48.532;8.722;2023-04-29T13:12:50;18.00;97.00
26589;DHT22;14235;48.532;8.722;2023-04-29T13:15:16;18.10;98.30
26589;DHT22;14235;48.532;8.722;2023-04-29T13:17:41;18.20;97.60
26589;DHT22;14235;48.532;8.722;2023-04-29T13:20:07;18.40;96.80
26589;DHT22;14235;48.532;8.722;2023-04-29T13:22:34;18.20;96.90
26589;DHT22;14235;48.532;8.722;2023-04-29T13:24:59;18.30;96.90
26589;DHT22;14235;48.532;8.722;2023-04-29T13:27:25;18.40;97.70
26589;DHT22;14235;48.532;8.722;2023-04-29T13:29:51;18.10;97.20
26589;DHT22;14235;48.532;8.722;2023-04-29T13:32:16;18.70;97.00
26589;DHT22;14235;48.532;8.722;2023-04-29T13:34:42;17.40;97.40
26589;DHT22;14235;48.532;8.722;2023-04-29T13:37:10;17.50;97.80
26589;DHT22;14235;48.532;8.722;2023-04-29T13:39:35;17.80;97.70
26589;DHT22;14235;48.532;8.722;2023-04-29T13:42:01;18.10;97.40
26589;DHT22;14235;48.532;8.722;2023-04-29T13:44:28;18.30;97.40
26589;DHT22;14235;48.532;8.722;2023-04-29T13:46:54;18.40;98.50
26589;DHT22;14235;48.532;8.722;2023-04-29T13:49:19;18.90;97.30
26589;DHT22;14235;48.532;8.722;2023-04-29T13:51:45;18.60;96.70
26589;DHT22;14235;48.532;8.722;2023-04-29T13:54:11;18.70;97.50
26589;DHT22;14235;48.532;8.722;2023-04-29T13:56:36;18.90;95.80
26589;DHT22;14235;48.532;8.722;2023-04-29T13:59:02;18.70;95.30
26589;DHT22;14235;48.532;8.722;2023-04-29T14:01:27;18.50;95.60
26589;DHT22;14235;48.532;8.722;2023-04-29T14:03:53;18.80;96.20
26589;DHT22;14235;48.532;8.722;2023-04-29T14:06:19;19.20;98.60
26589;DHT22;14235;48.532;8.722;2023-04-29T14:08:44;19.70;94.10
26589;DHT22;14235;48.532;8.722;2023-04-29T14:11:10;20.10;92.50
26589;DHT22;14235;48.532;8.722;2023-04-29T14:13:36;19.70;91.50
26589;DHT22;14235;48.532;8.722;2023-04-29T14:16:01;19.20;92.10
26589;DHT22;14235;48.532;8.722;2023-04-29T14:18:29;18.90;92.80
26589;DHT22;14235;48.532;8.722;2023-04-29T14:20:55;18.90;91.80
26589;DHT22;14235;48.532;8.722;2023-04-29T14:23:22;18.20;92.20
26589;DHT22;14235;48.532;8.722;2023-04-29T14:25:47;18.70;92.80
26589;DHT22;14235;48.532;8.722;2023-04-29T14:28:13;19.30;91.50
26589;DHT22;14235;48.532;8.722;2023-04-29T14:30:38;20.50;90.20
26589;DHT22;14235;48.532;8.722;2023-04-29T14:33:05;21.40;87.60
26589;DHT22;14235;48.532;8.722;2023-04-29T14:35:30;22.80;85.70
26589;DHT22;14235;48.532;8.722;2023-04-29T14:37:56;23.50;87.90
26589;DHT22;14235;48.532;8.722;2023-04-29T14:40:22;24.70;86.90
26589;DHT22;14235;48.532;8.722;2023-04-29T14:45:13;25.60;79.80
26589;DHT22;14235;48.532;8.722;2023-04-29T14:50:05;25.90;82.60
26589;DHT22;14235;48.532;8.722;2023-04-29T14:52:31;23.90;76.50
26589;DHT22;14235;48.532;8.722;2023-04-29T14:54:57;24.60;90.20
26589;DHT22;14235;48.532;8.722;2023-04-29T14:57:22;23.40;90.00
26589;DHT22;14235;48.532;8.722;2023-04-29T14:59:48;23.20;88.60
26589;DHT22;14235;48.532;8.722;2023-04-29T15:02:14;23.90;89.00
26589;DHT22;14235;48.532;8.722;2023-04-29T15:09:38;25.70;91.90
26589;DHT22;14235;48.532;8.722;2023-04-29T15:31:35;23.50;72.80
26589;DHT22;14235;48.532;8.722;2023-04-29T15:34:00;22.50;78.60
26589;DHT22;14235;48.532;8.722;2023-04-29T15:36:28;22.30;80.60
26589;DHT22;14235;48.532;8.722;2023-04-29T15:38:54;21.20;88.70
26589;DHT22;14235;48.532;8.722;2023-04-29T15:41:20;21.30;90.60
26589;DHT22;14235;48.532;8.722;2023-04-29T15:43:46;21.00;89.30
26589;DHT22;14235;48.532;8.722;2023-04-29T15:46:11;20.60;85.90
26589;DHT22;14235;48.532;8.722;2023-04-29T15:48:37;20.40;88.10
26589;DHT22;14235;48.532;8.722;2023-04-29T15:55:55;19.80;90.80
26589;DHT22;14235;48.532;8.722;2023-04-29T16:03:13;19.10;94.00
26589;DHT22;14235;48.532;8.722;2023-04-29T16:05:38;19.20;93.90
26589;DHT22;14235;48.532;8.722;2023-04-29T16:08:05;19.20;92.80
26589;DHT22;14235;48.532;8.722;2023-04-29T16:10:31;19.10;92.70
26589;DHT22;14235;48.532;8.722;2023-04-29T16:15:22;19.00;92.80
26589;DHT22;14235;48.532;8.722;2023-04-29T16:17:48;18.80;93.10
26589;DHT22;14235;48.532;8.722;2023-04-29T16:20:14;18.70;93.50
26589;DHT22;14235;48.532;8.722;2023-04-29T16:22:41;18.50;95.00
26589;DHT22;14235;48.532;8.722;2023-04-29T16:25:07;18.50;94.60
26589;DHT22;14235;48.532;8.722;2023-04-29T16:29:59;18.20;93.50
26589;DHT22;14235;48.532;8.722;2023-04-29T16:32:24;17.80;96.00
26589;DHT22;14235;48.532;8.722;2023-04-29T16:34:52;17.50;99.90
26589;DHT22;14235;48.532;8.722;2023-04-29T16:37:18;17.40;99.90
26589;DHT22;14235;48.532;8.722;2023-04-29T16:39:44;17.20;99.30
26589;DHT22;14235;48.532;8.722;2023-04-29T16:42:09;17.30;99.10
26589;DHT22;14235;48.532;8.722;2023-04-29T16:44:35;17.20;98.30
26589;DHT22;14235;48.532;8.722;2023-04-29T16:47:01;17.00;99.90
26589;DHT22;14235;48.532;8.722;2023-04-29T16:49:27;17.00;99.90
26589;DHT22;14235;48.532;8.722;2023-04-29T16:51:54;16.90;99.90